Date,TemperatureHighF,TemperatureAvgF,TemperatureLowF,DewpointHighF,DewpointAvgF,DewpointLowF,HumidityHigh,HumidityAvg,HumidityLow,PressureMaxIn,PressureMinIn,WindSpeedMaxMPH,WindSpeedAvgMPH,GustSpeedMaxMPH,PrecipitationSumIn
2014-1-1,51.1,37.2,27.5,33.8,25.6,20.4,79,64,46,30.27,29.97,15,3,15,0.00
2014-1-2,38.5,28.1,15.1,33.8,21.5,8.3,85,76,61,30.29,29.80,22,6,23,0.22
2014-1-3,29.1,17.6,7.7,15.8,8.2,1.7,77,67,53,30.48,30.20,14,3,17,0.00
2014-1-4,44.1,29.7,17.4,24.6,16.7,9.2,71,59,44,30.20,30.01,22,6,24,0.00
2014-1-5,55.6,39.4,17.2,44.6,31.5,10.9,86,74,58,30.03,29.52,22,7,25,0.81
2014-1-6,16.9,3.1,-3.5,10.9,-5.4,-11.7,77,67,57,30.43,29.92,22,10,24,0.00
2014-1-7,21.0,7.7,-3.3,8.2,-1.6,-11.2,74,66,54,30.50,30.31,17,4,17,0.00
2014-1-8,37.9,24.8,10.4,21.5,13.6,2.1,71,63,50,30.43,30.35,13,4,13,0.00
2014-1-9,44.1,34.3,28.4,29.0,23.6,19.5,79,66,46,30.43,30.22,11,2,17,0.02
2014-1-10,52.0,45.3,34.9,47.3,40.2,29.0,86,82,79,30.22,29.67,22,4,22,0.00
2014-1-11,52.5,44.9,34.0,48.1,39.1,28.8,89,80,66,29.87,29.55,21,5,21,1.04
2014-1-12,54.5,40.6,28.6,40.1,32.2,24.9,88,73,51,30.07,29.87,15,4,15,0.00
2014-1-13,49.3,47.3,41.0,45.3,39.1,30.8,88,74,58,29.91,29.72,20,7,24,0.86
2014-1-14,54.3,42.0,30.4,41.8,34.6,26.7,88,76,53,29.96,29.78,22,5,22,0.10
2014-1-15,34.9,26.8,17.2,27.8,18.6,11.4,78,71,63,30.10,29.95,19,3,20,0.00
2014-1-16,39.4,26.9,14.7,28.5,19.7,9.7,83,75,57,30.07,29.73,19,4,20,0.00
2014-1-17,33.3,24.5,16.0,28.4,18.1,7.5,87,77,63,30.08,29.74,20,4,21,0.00
2014-1-18,36.3,26.6,13.6,25.4,17.2,8.5,81,68,53,30.07,29.76,19,4,20,0.00
2014-1-19,41.5,34.5,27.3,29.9,25.7,20.6,84,71,58,30.05,29.77,22,6,22,0.00
2014-1-20,54.3,41.4,31.3,36.2,28.4,22.6,71,60,47,29.90,29.80,18,4,18,0.00
2014-1-21,37.0,23.1,8.8,28.5,13.1,-2.0,85,66,46,30.17,29.75,22,6,25,0.00
2014-1-22,25.0,14.9,4.3,11.9,4.7,-2.9,73,64,53,30.18,30.00,14,3,14,0.00
2014-1-23,20.5,11.1,4.8,12.6,-0.0,-5.4,75,61,49,30.62,30.09,22,7,25,0.00
2014-1-24,28.2,14.1,-0.2,11.9,2.1,-6.8,76,60,44,30.63,29.93,23,6,24,0.00
2014-1-25,41.7,29.0,18.1,26.3,13.7,3.2,78,54,34,29.95,29.63,23,10,27,0.12
2014-1-26,55.2,36.9,14.7,35.2,21.3,1.8,62,53,45,29.95,29.58,20,6,26,0.00
2014-1-27,48.4,21.3,9.7,34.1,4.6,-4.5,65,48,39,30.37,29.67,24,8,28,0.00
2014-1-28,18.5,9.9,3.9,1.7,-4.7,-8.8,65,52,39,30.41,30.27,10,3,11,0.00
2014-1-29,29.8,14.8,1.2,12.9,-0.6,-8.8,66,51,37,30.37,30.26,12,2,12,0.00
2014-1-30,42.1,23.5,8.4,15.4,5.1,-2.5,62,47,28,30.27,29.94,22,5,24,0.00
2014-1-31,47.3,41.9,36.3,22.4,20.6,16.5,49,42,36,30.15,30.00,10,2,10,0.00
2014-2-1,63.1,50.9,40.3,42.2,31.4,21.8,68,48,35,30.02,29.86,22,6,25,0.00
2014-2-2,52.0,37.0,29.1,42.3,32.2,25.5,87,83,68,30.14,29.88,20,4,20,1.06
2014-2-3,40.6,29.4,24.4,30.8,23.6,19.3,87,79,62,30.29,30.02,3,0,4,0.02
2014-2-4,31.8,27.9,22.8,28.7,23.8,18.7,88,84,79,30.27,29.76,10,2,10,0.00
2014-2-5,32.7,28.1,24.4,29.7,24.2,20.0,89,85,80,30.36,29.70,0,0,0,0.00
2014-2-6,25.5,21.2,12.9,20.6,16.4,7.9,85,81,75,30.44,30.34,0,0,0,0.00
2014-2-7,29.8,15.1,3.7,18.4,8.3,-1.3,80,74,61,30.45,30.31,0,0,0,0.00
2014-2-8,35.4,26.0,17.8,26.8,19.9,12.7,83,78,67,30.31,30.11,0,0,0,0.00
2014-2-9,36.7,29.7,24.1,28.5,24.8,19.8,86,82,70,30.23,30.05,0,0,0,0.00
2014-2-10,29.5,21.1,13.6,19.8,14.4,7.8,84,75,62,30.34,30.19,0,0,0,0.00
2014-2-11,28.0,16.0,5.5,17.1,8.3,-0.1,78,72,60,30.42,30.29,0,0,0,0.00
2014-2-12,38.1,23.1,11.3,26.2,15.4,6.1,79,72,60,30.31,29.94,5,1,6,0.00
2014-2-13,45.3,32.3,23.2,30.1,21.3,16.7,78,65,48,29.95,29.71,11,4,12,0.00
2014-2-14,45.7,34.9,25.5,33.2,27.2,20.3,86,74,60,29.81,29.57,25,5,25,0.69
2014-2-15,38.1,25.2,16.2,24.7,17.0,10.8,81,71,55,30.13,29.80,22,5,26,0.00
2014-2-16,41.4,32.3,26.1,28.3,23.4,20.0,79,70,59,30.21,29.95,16,3,16,0.00
2014-2-17,48.7,35.3,24.6,43.5,28.5,19.0,86,77,58,30.21,29.69,21,5,21,0.43
2014-2-18,62.2,45.2,30.0,42.0,31.9,25.1,84,62,39,30.14,29.82,21,4,21,0.00
2014-2-19,60.6,51.5,43.3,48.0,39.6,31.8,87,65,45,30.04,29.77,17,4,17,0.28
2014-2-20,70.5,57.2,41.7,56.4,47.2,31.6,82,70,58,29.96,29.53,22,8,24,0.49
2014-2-21,50.9,42.6,35.2,40.1,26.2,17.8,79,54,30,30.02,29.70,22,7,25,0.04
2014-2-22,67.8,48.7,34.3,35.9,25.5,19.0,55,42,27,30.08,29.91,20,4,20,0.00
2014-2-23,49.1,38.8,28.8,34.5,28.9,22.1,82,68,41,30.20,29.94,16,5,23,0.04
2014-2-24,42.8,30.9,21.0,22.4,14.5,9.6,76,52,34,30.31,30.16,16,3,16,0.00
2014-2-25,42.6,32.3,13.6,20.9,15.8,-5.2,62,51,39,30.18,30.07,18,4,23,0.00
2014-2-26,27.3,22.1,16.2,16.8,8.3,3.7,75,56,41,30.18,29.94,52,6,52,0.00
2014-2-27,34.3,23.3,14.2,15.2,5.3,-0.4,66,48,27,30.11,29.87,20,5,23,0.00
2014-2-28,46.8,29.7,14.7,17.2,8.9,-0.5,58,42,30,30.17,30.00,7,2,9,0.00
2014-3-1,61.3,48.5,36.1,37.6,30.3,14.7,62,50,40,30.15,30.04,12,2,12,0.00
2014-3-2,49.1,34.7,21.9,35.8,28.5,17.8,86,79,59,30.13,30.01,21,5,24,1.90
2014-3-3,26.2,19.7,15.3,17.8,12.1,7.5,84,72,57,30.33,30.08,14,5,14,0.00
2014-3-4,40.6,25.4,12.0,21.6,13.8,5.6,76,62,44,30.30,30.13,6,2,7,0.08
2014-3-5,46.8,32.2,20.3,27.7,20.8,14.8,82,64,44,30.24,30.13,10,2,13,0.22
2014-3-6,50.4,35.8,24.3,30.9,22.9,16.8,73,60,46,30.21,30.03,10,3,15,0.00
2014-3-7,62.6,45.2,30.2,39.6,30.3,23.1,75,58,40,30.03,29.95,10,1,10,0.00
2014-3-8,65.3,48.3,32.9,43.8,34.3,24.9,74,60,40,30.15,29.99,22,4,24,0.00
2014-3-9,53.8,40.4,26.4,32.8,25.7,18.3,74,57,38,30.27,30.06,15,4,15,0.00
2014-3-10,70.5,50.4,33.8,45.9,34.6,23.5,76,56,35,30.06,29.79,21,6,21,0.00
2014-3-11,79.0,60.3,44.4,52.1,41.8,34.4,75,53,30,29.81,29.56,20,5,20,0.00
2014-3-12,61.9,45.8,31.6,53.4,36.7,22.4,84,71,57,30.02,29.33,22,9,28,0.16
2014-3-13,48.6,35.6,22.3,25.0,19.6,12.6,79,54,37,30.22,30.02,13,4,14,0.00
2014-3-14,66.0,49.0,33.1,37.4,29.0,18.4,64,47,34,30.11,29.85,25,9,26,0.00
2014-3-15,68.9,54.6,36.1,42.2,32.6,25.7,75,46,27,30.10,29.95,21,2,23,0.00
2014-3-16,50.5,37.5,27.7,28.9,26.7,21.4,84,67,42,29.99,29.82,23,4,23,0.08
2014-3-17,47.1,35.3,26.4,32.2,23.9,16.6,75,63,54,29.90,29.77,8,1,10,0.16
2014-3-18,55.2,43.7,32.2,43.7,35.9,26.3,81,74,63,29.95,29.79,18,2,18,0.00
2014-3-19,60.1,49.5,40.6,47.1,40.5,31.6,80,72,54,30.07,29.80,24,9,26,0.00
2014-3-20,60.1,44.9,29.1,37.5,29.2,23.1,80,56,36,30.16,30.02,18,3,18,0.00
2014-3-21,74.3,54.7,37.2,41.1,31.5,23.8,59,43,29,30.05,29.88,19,6,22,0.00
2014-3-22,58.8,51.2,42.6,35.5,31.6,28.7,59,47,36,30.14,29.88,14,4,20,0.00
2014-3-23,47.7,40.4,31.6,29.9,24.9,15.3,72,55,38,30.29,30.13,22,5,22,0.00
2014-3-24,52.5,37.0,23.2,25.7,18.0,13.5,68,48,30,30.30,30.07,11,2,12,0.00
2014-3-25,38.3,32.3,26.2,26.6,20.2,10.5,80,62,38,30.21,30.00,25,6,25,0.02
2014-3-26,49.1,33.1,17.8,23.1,13.7,7.0,65,46,31,30.35,30.18,12,2,12,0.00
2014-3-27,61.5,48.6,32.5,39.0,25.0,12.7,62,40,29,30.21,29.82,26,8,31,0.02
2014-3-28,68.5,56.8,49.1,54.3,47.3,39.3,83,71,57,30.02,29.81,22,6,24,0.47
2014-3-29,53.2,43.1,38.1,42.2,37.8,33.5,88,82,65,30.14,29.86,60,9,60,1.02
2014-3-30,58.6,44.9,32.4,36.0,31.2,26.6,81,61,40,30.22,30.12,18,4,18,0.26
2014-3-31,74.5,55.5,36.0,41.2,32.9,25.8,70,45,26,30.17,29.95,10,2,10,0.00
2014-4-1,79.3,65.3,54.3,49.4,41.4,31.5,69,43,31,30.02,29.95,22,6,23,0.00
2014-4-2,76.1,58.7,48.9,54.9,45.9,39.9,77,64,43,30.08,29.94,14,3,14,0.22
2014-4-3,72.3,60.5,54.7,61.6,55.1,47.8,89,83,68,29.97,29.71,27,4,28,2.88
2014-4-4,64.8,54.5,43.9,57.9,47.7,31.8,90,78,62,30.03,29.56,26,6,26,1.02
2014-4-5,57.9,46.3,37.6,37.6,30.6,25.6,67,55,42,30.18,30.03,16,4,16,0.00
2014-4-6,66.4,50.9,36.7,39.7,34.0,27.5,71,54,36,30.14,29.87,58,2,59,0.00
2014-4-7,67.5,53.9,44.1,58.6,47.0,37.0,88,78,53,29.87,29.39,19,5,25,0.40
2014-4-8,66.9,49.7,39.4,52.1,42.6,35.5,87,77,55,29.86,29.70,16,3,16,0.06
2014-4-9,68.4,53.2,41.9,45.7,38.6,28.6,86,61,35,30.08,29.85,14,3,15,0.00
2014-4-10,78.6,59.6,40.1,49.7,39.5,28.3,66,49,34,30.08,29.90,22,7,25,0.00
2014-4-11,81.5,65.8,56.8,57.3,47.7,40.5,71,53,42,30.08,29.97,22,6,22,0.00
2014-4-12,84.4,67.5,51.1,60.0,51.9,45.6,84,60,39,30.12,29.92,23,5,24,0.00
2014-4-13,86.2,73.1,63.3,60.0,53.4,47.3,66,51,39,29.98,29.75,23,10,26,0.00
2014-4-14,73.9,62.2,45.3,61.4,52.8,41.1,86,72,46,29.80,29.67,22,8,24,1.26
2014-4-15,46.6,38.4,32.5,41.1,26.7,19.0,88,65,40,30.21,29.80,22,8,24,0.55
2014-4-16,56.5,41.7,26.8,29.7,23.7,17.3,69,51,33,30.34,30.16,19,2,20,0.00
2014-4-17,72.7,55.7,39.4,45.0,33.9,23.9,63,45,32,30.34,30.19,22,3,22,0.00
2014-4-18,77.5,60.5,46.0,50.7,39.2,29.6,60,46,34,30.29,30.16,13,1,13,0.00
2014-4-19,75.0,62.5,49.6,47.0,39.8,34.9,63,45,30,30.25,30.15,16,3,20,0.00
2014-4-20,82.2,65.1,48.0,50.9,40.7,32.2,59,42,28,30.24,30.07,6,1,10,0.02
2014-4-21,86.7,68.6,52.0,57.1,47.3,38.7,64,48,33,30.09,29.88,12,2,14,0.00
2014-4-22,74.5,65.2,54.0,58.2,48.9,34.6,79,58,31,29.94,29.81,20,5,22,0.02
2014-4-23,63.7,55.6,50.2,35.6,32.5,30.3,54,42,32,30.04,29.94,8,1,15,0.00
2014-4-24,81.1,62.1,45.5,47.8,39.3,31.2,60,45,28,30.02,29.71,13,2,14,0.00
2014-4-25,70.0,62.4,55.0,56.1,48.2,38.6,85,62,36,29.95,29.62,22,6,25,1.20
2014-4-26,84.6,65.4,45.7,54.6,44.1,37.2,73,49,28,29.99,29.88,19,3,19,0.00
2014-4-27,89.8,70.2,55.9,61.1,51.5,40.8,76,53,34,29.93,29.77,12,2,14,0.00
2014-4-28,71.2,64.2,61.5,64.0,59.0,56.5,89,83,75,29.84,29.57,18,4,23,2.99
2014-4-29,82.6,64.6,53.8,62.8,54.7,46.1,89,73,42,29.84,29.56,21,5,24,0.73
2014-4-30,73.6,59.4,49.3,59.7,49.8,42.0,89,72,47,29.94,29.75,20,4,20,0.04
2014-5-1,66.4,54.4,43.3,48.6,40.3,37.1,83,61,38,29.94,29.89,20,5,22,0.00
2014-5-2,64.8,53.5,40.6,47.8,40.2,34.9,80,62,47,29.94,29.88,13,2,14,0.00
2014-5-3,73.9,57.5,41.0,50.3,41.9,34.3,79,59,38,29.97,29.88,22,4,25,0.00
2014-5-4,85.3,67.4,48.0,59.2,48.2,38.7,73,53,31,29.99,29.87,17,2,17,0.00
2014-5-5,91.9,72.5,51.8,61.0,50.9,41.5,69,49,32,29.95,29.76,22,4,22,0.00
2014-5-6,91.2,73.9,56.3,65.4,53.9,45.1,69,51,38,29.90,29.81,13,3,14,0.00
2014-5-7,90.0,74.2,57.0,64.6,54.1,45.1,68,51,35,30.00,29.87,20,5,23,0.00
2014-5-8,90.9,75.8,62.8,71.4,57.3,49.9,72,54,36,30.09,29.98,20,6,20,0.00
2014-5-9,81.1,70.5,61.5,67.2,58.6,50.5,83,66,51,30.01,29.88,19,4,20,1.87
2014-5-10,81.7,68.3,61.2,67.0,60.8,56.3,88,78,59,30.01,29.93,20,3,21,1.59
2014-5-11,91.9,71.4,60.8,71.8,62.5,57.1,89,76,46,30.08,29.98,22,2,22,2.40
2014-5-12,92.8,77.6,64.8,73.2,65.1,60.1,89,68,44,30.08,29.98,22,4,25,0.00
2014-5-13,92.1,77.8,64.9,71.7,63.2,58.3,81,63,43,30.07,29.98,20,4,20,0.00
2014-5-14,78.1,66.7,62.4,69.1,61.7,57.8,90,84,71,30.08,29.82,23,3,24,3.34
2014-5-15,63.0,52.9,45.0,59.3,46.0,40.0,88,78,59,30.05,29.81,19,5,23,0.04
2014-5-16,61.3,51.5,43.5,48.8,40.6,34.5,89,69,40,30.08,29.95,24,4,26,0.02
2014-5-17,67.6,53.3,42.4,44.5,38.1,34.2,82,58,38,30.21,30.07,14,2,14,0.00
2014-5-18,72.5,56.5,39.7,47.3,39.6,32.4,80,55,37,30.26,30.18,10,1,10,0.00
2014-5-19,80.4,63.8,47.1,51.6,44.2,36.3,68,51,34,30.25,30.08,10,1,10,0.00
2014-5-20,88.2,72.3,56.1,65.7,55.2,45.3,78,57,41,30.11,29.97,22,5,26,0.00
2014-5-21,89.2,75.7,61.9,69.5,61.1,51.2,72,61,51,30.02,29.94,19,5,20,0.00
2014-5-22,88.2,74.8,61.9,72.7,62.6,55.6,87,67,49,30.08,29.97,20,4,21,0.60
2014-5-23,81.1,69.2,59.9,56.4,53.3,47.5,77,59,40,30.13,30.03,11,2,13,0.00
2014-5-24,82.2,69.2,53.1,56.8,51.2,44.6,77,55,37,30.18,30.07,10,1,10,0.00
2014-5-25,81.5,68.7,58.6,62.6,55.2,47.8,79,63,49,30.14,30.06,5,0,5,0.00
2014-5-26,92.1,75.4,59.4,72.0,63.0,53.7,85,67,46,30.12,30.02,13,2,15,0.00
2014-5-27,94.8,75.4,65.8,73.4,64.1,57.7,83,70,47,30.06,29.95,19,2,23,0.18
2014-5-28,92.8,74.7,64.9,73.5,65.0,60.1,89,74,47,30.02,29.93,14,1,14,0.43
2014-5-29,90.5,75.4,65.7,73.3,66.0,61.1,88,74,51,30.05,29.95,7,1,7,0.00
2014-5-30,92.1,75.8,65.8,71.0,66.5,61.9,89,75,47,30.08,30.01,8,0,8,0.06
2014-5-31,88.5,76.0,65.5,66.5,60.5,54.8,86,61,38,30.13,30.03,10,1,10,0.00
2014-6-1,92.8,75.9,63.3,73.5,64.1,54.3,83,68,50,30.11,30.02,17,2,17,0.06
2014-6-2,87.4,76.6,68.2,69.8,65.1,60.3,83,68,54,30.12,30.00,20,5,24,0.04
2014-6-3,91.8,77.1,69.1,74.8,68.1,63.9,86,75,53,30.06,29.93,15,3,15,0.06
2014-6-4,90.7,76.5,67.1,73.7,68.0,62.4,86,76,55,29.94,29.72,20,4,20,0.26
2014-6-5,77.7,69.3,62.4,65.1,61.0,57.0,88,76,60,29.91,29.76,9,1,9,0.00
2014-6-6,86.2,72.5,58.8,65.5,59.7,55.3,90,67,45,29.97,29.89,8,1,8,0.00
2014-6-7,91.0,75.4,59.7,67.2,59.5,51.0,77,60,40,30.02,29.80,9,1,10,0.00
2014-6-8,77.2,70.3,64.8,63.4,60.6,57.8,80,72,59,29.95,29.76,19,5,20,0.00
2014-6-9,79.5,69.2,61.3,65.0,60.3,56.8,87,74,57,29.96,29.85,10,1,10,0.00
2014-6-10,87.6,71.3,64.8,70.8,63.9,59.3,87,78,56,29.86,29.74,12,3,13,0.95
2014-6-11,81.3,71.9,65.1,69.9,64.3,61.2,88,78,59,29.80,29.72,20,3,20,0.22
2014-6-12,82.6,72.7,63.7,69.1,61.7,59.1,90,70,51,29.89,29.78,14,2,15,0.00
2014-6-13,77.2,70.6,62.2,63.9,58.7,49.2,86,68,43,30.01,29.84,12,2,12,0.22
2014-6-14,80.4,67.6,52.2,55.7,49.1,43.6,75,53,35,30.11,30.00,6,1,8,0.00
2014-6-15,94.3,76.7,58.8,71.1,59.0,47.5,74,56,36,30.08,29.98,18,3,18,0.00
2014-6-16,98.4,82.4,68.0,75.0,65.6,57.0,70,58,42,30.15,30.06,11,2,12,0.00
2014-6-17,97.9,82.5,67.1,75.4,67.5,59.5,78,62,46,30.13,30.01,15,3,17,0.00
2014-6-18,98.8,84.0,70.9,76.5,69.0,63.9,80,62,43,30.11,30.00,14,3,14,0.00
2014-6-19,96.6,85.4,70.3,74.8,69.1,63.0,80,60,43,30.12,30.01,58,3,58,0.00
2014-6-20,95.7,81.1,71.2,74.2,68.3,64.2,80,67,44,30.06,29.93,16,3,16,0.00
2014-6-21,91.0,79.7,68.4,75.0,66.4,61.9,87,66,43,29.97,29.87,12,1,12,0.00
2014-6-22,98.8,83.0,69.3,73.7,67.1,60.4,76,61,40,29.95,29.83,14,2,14,0.00
2014-6-23,99.7,81.3,69.3,76.2,67.8,62.1,84,66,42,29.95,29.86,13,2,21,0.18
2014-6-24,92.1,77.8,69.1,74.0,68.0,63.4,87,73,52,29.95,29.84,59,5,59,1.82
2014-6-25,89.4,78.2,70.0,72.6,66.8,63.4,89,70,47,30.02,29.89,11,2,15,0.00
2014-6-26,92.3,79.5,67.8,71.7,65.9,61.4,82,64,45,30.05,29.95,5,1,8,0.00
2014-6-27,96.3,80.3,66.9,74.6,67.1,60.9,83,66,45,30.06,29.98,12,1,12,0.00
2014-6-28,91.8,78.7,70.0,75.5,68.1,63.2,81,71,54,30.14,30.04,14,2,14,0.04
2014-6-29,88.2,77.8,70.3,74.7,68.5,63.9,83,74,60,30.13,30.01,20,3,20,0.30
2014-6-30,98.2,81.6,67.3,79.4,70.8,61.9,88,71,50,30.03,29.84,18,3,18,0.00
2014-7-1,97.7,83.0,68.5,78.3,71.3,63.1,84,69,52,29.93,29.77,20,4,20,0.79
2014-7-2,93.7,76.4,67.3,74.7,66.7,58.0,88,74,47,30.00,29.85,12,3,12,0.04
2014-7-3,78.4,69.1,58.6,61.9,57.5,52.8,83,67,54,30.15,30.00,10,3,13,0.00
2014-7-4,80.2,70.5,58.1,64.6,55.3,51.4,86,61,39,30.25,30.15,10,3,10,0.00
2014-7-5,87.6,72.6,56.5,60.9,54.5,47.7,75,55,35,30.27,30.09,57,1,58,0.00
2014-7-6,93.9,77.1,61.0,67.2,59.9,52.1,75,57,39,30.11,29.95,21,3,21,0.00
2014-7-7,97.9,79.6,64.2,73.4,64.0,55.4,77,60,44,29.97,29.81,22,6,23,0.00
2014-7-8,91.9,78.3,68.2,72.3,66.1,60.7,85,68,46,29.94,29.81,26,6,26,0.55
2014-7-9,87.8,76.8,66.4,71.1,63.2,58.0,88,66,42,30.00,29.89,13,2,14,0.04
2014-7-10,88.0,76.0,28.9,68.2,60.4,21.4,80,60,41,30.11,29.99,12,1,13,0.00
2014-7-11,95.7,77.7,62.8,70.3,60.5,54.2,78,57,37,30.18,30.09,11,1,12,0.00
2014-7-12,99.0,80.5,65.3,72.3,64.4,55.4,75,60,39,30.17,30.03,9,1,9,0.00
2014-7-13,100.0,85.2,71.4,78.1,69.5,63.3,77,61,43,30.05,29.91,17,4,17,0.00
2014-7-14,91.0,77.8,70.3,73.4,68.6,62.1,86,74,54,29.96,29.82,10,2,10,0.53
2014-7-15,77.7,70.3,60.6,63.2,56.6,48.9,86,64,44,29.97,29.85,16,4,16,0.00
2014-7-16,81.1,67.4,55.8,58.1,53.2,49.0,84,62,41,30.01,29.95,14,2,15,0.00
2014-7-17,84.2,70.4,56.5,59.4,53.4,50.3,82,58,35,30.10,30.01,11,1,12,0.00
2014-7-18,71.8,67.0,61.5,61.1,55.7,50.2,86,69,49,30.12,30.06,5,0,5,0.20
2014-7-19,75.9,68.2,62.4,66.9,62.7,58.5,89,83,72,30.06,29.97,6,1,8,0.02
2014-7-20,87.1,75.4,67.3,72.3,66.3,62.3,91,75,55,30.03,29.95,8,1,8,0.00
2014-7-21,92.1,79.6,66.4,72.6,66.1,54.2,89,66,46,30.10,30.00,6,1,6,0.00
2014-7-22,102.0,84.7,69.3,76.2,69.0,62.1,82,62,42,30.10,30.00,9,1,9,0.00
2014-7-23,92.8,80.6,72.5,75.0,69.2,64.9,83,69,52,30.08,29.92,14,2,15,0.00
2014-7-24,82.0,75.5,64.6,67.6,60.5,53.0,76,61,42,30.04,29.92,14,3,14,0.02
2014-7-25,90.1,73.0,58.8,62.6,56.3,49.8,83,58,37,30.07,29.90,10,1,10,0.00
2014-7-26,99.9,80.5,61.7,81.7,64.4,54.2,83,60,41,30.02,29.83,22,7,22,0.26
2014-7-27,90.0,77.0,65.1,79.1,69.1,61.1,90,77,62,30.00,29.74,24,4,25,2.56
2014-7-28,79.2,71.7,62.4,65.8,59.5,55.2,82,66,55,30.00,29.85,13,4,14,0.00
2014-7-29,77.9,65.9,52.2,57.4,53.0,44.8,80,64,48,30.07,29.99,12,3,12,0.00
2014-7-30,86.7,71.7,55.9,68.2,57.4,51.2,85,63,42,30.08,30.02,13,2,13,0.00
2014-7-31,91.8,75.0,33.4,68.3,59.4,11.7,85,61,40,30.09,30.04,6,1,7,0.00
2014-8-1,90.3,76.1,62.4,66.4,58.8,54.6,77,57,37,30.08,30.00,7,0,7,0.00
2014-8-2,87.3,74.2,62.4,66.3,60.6,54.6,81,64,45,30.11,30.01,11,2,12,0.00
2014-8-3,88.3,76.0,61.3,66.0,60.7,51.1,86,61,43,30.14,30.05,6,1,6,0.00
2014-8-4,91.0,76.8,63.1,67.5,60.7,56.4,82,60,37,30.12,30.02,7,1,7,0.00
2014-8-5,95.4,77.4,63.7,70.3,62.8,55.5,80,62,39,30.07,29.98,9,1,9,0.00
2014-8-6,88.2,78.3,66.7,72.5,66.5,60.2,86,68,52,30.01,29.95,6,2,6,0.12
2014-8-7,86.7,75.9,68.9,70.8,66.3,61.5,83,73,57,30.05,29.94,9,1,9,0.16
2014-8-8,85.3,74.1,67.8,73.5,67.8,64.1,89,81,66,29.99,29.91,10,1,10,0.12
2014-8-9,91.2,76.4,71.2,76.1,69.8,67.2,89,81,58,29.98,29.89,11,1,12,0.73
2014-8-10,91.6,78.4,70.7,76.4,69.8,66.1,91,76,53,29.98,29.89,6,1,7,0.06
2014-8-11,91.2,75.4,68.7,76.1,68.4,63.7,88,79,58,29.94,29.80,11,2,13,0.77
2014-8-12,81.7,71.9,63.3,67.0,62.2,55.3,90,73,52,29.97,29.82,20,3,21,0.00
2014-8-13,81.3,69.4,58.1,60.9,57.2,54.1,88,67,47,30.07,29.96,12,2,12,0.00
2014-8-14,86.2,74.1,59.4,66.9,59.0,52.5,81,61,46,30.06,29.96,10,2,10,0.00
2014-8-15,82.0,74.5,61.7,69.5,61.0,56.1,83,64,51,30.06,29.98,8,3,8,0.00
2014-8-16,88.2,73.7,65.3,70.2,62.7,55.8,83,69,50,30.02,29.94,7,1,8,0.00
2014-8-17,81.7,71.8,68.4,72.6,66.7,62.7,89,84,72,29.97,29.80,15,2,16,1.61
2014-8-18,79.7,73.8,70.2,72.4,68.8,66.5,90,85,73,29.87,29.80,18,2,18,0.08
2014-8-19,93.7,79.2,67.8,77.4,69.8,65.1,91,75,53,29.88,29.80,12,1,12,0.04
2014-8-20,96.6,78.0,66.4,81.0,69.3,62.1,89,76,57,30.05,29.85,20,2,21,0.02
2014-8-21,93.0,79.7,68.7,76.4,69.6,64.0,86,72,52,30.08,29.98,17,3,17,0.00
2014-8-22,94.3,81.7,72.0,78.1,71.7,66.2,86,73,58,30.05,29.94,11,3,13,0.53
2014-8-23,98.4,80.1,70.3,80.1,72.0,66.6,90,78,54,30.01,29.88,17,1,12,3.16
2014-8-24,92.1,78.9,70.9,76.5,71.3,67.8,91,79,58,30.02,29.91,6,1,6,0.36
2014-8-25,94.8,81.8,71.8,80.5,72.6,68.7,91,75,54,30.06,29.98,6,0,7,0.00
2014-8-26,95.0,81.5,70.2,76.4,70.8,66.3,88,72,53,30.12,30.02,6,0,7,0.00
2014-8-27,97.2,79.9,69.1,75.8,69.0,64.0,87,71,49,30.09,30.00,56,1,58,0.00
2014-8-28,96.1,80.3,69.8,76.2,70.3,65.6,89,73,52,30.04,29.95,4,0,7,0.00
2014-8-29,97.5,80.5,70.2,76.7,67.5,60.9,87,67,39,30.03,29.96,12,2,13,0.00
2014-8-30,95.4,77.2,67.3,74.9,66.3,59.1,86,70,51,30.04,30.00,15,3,15,0.10
2014-8-31,78.1,73.1,70.7,72.5,68.6,66.7,88,86,82,30.05,29.96,12,2,13,0.56
2014-9-1,91.6,78.3,70.3,77.0,71.0,66.6,90,79,58,30.02,29.92,22,4,23,0.06
2014-9-2,92.1,80.7,71.2,76.9,70.7,66.0,86,73,57,30.03,29.90,16,3,16,0.04
2014-9-3,90.7,77.8,70.3,73.9,69.5,66.6,91,77,55,30.05,29.97,5,0,5,0.00
2014-9-4,95.4,80.3,68.7,76.7,70.1,65.7,91,73,50,30.10,30.02,11,1,12,0.00
2014-9-5,97.9,81.5,69.1,78.9,70.1,64.7,86,70,47,30.14,29.98,11,1,12,0.00
2014-9-6,86.0,75.9,67.3,71.2,67.1,60.5,88,75,58,30.10,29.99,19,3,20,0.00
2014-9-7,81.3,69.9,61.0,63.6,58.0,51.9,84,67,44,30.13,30.05,8,1,8,0.00
2014-9-8,85.8,69.0,55.2,65.3,57.4,49.7,84,68,48,30.08,29.99,7,1,7,0.00
2014-9-9,89.4,72.4,59.5,70.2,62.1,55.7,89,72,45,30.08,29.94,6,1,6,0.00
2014-9-10,86.5,76.1,68.2,73.5,67.8,60.3,86,76,64,29.95,29.80,22,6,25,0.00
2014-9-11,76.3,69.8,60.4,69.8,65.0,55.6,89,85,79,30.09,29.84,13,3,14,0.18
2014-9-12,67.3,61.6,57.7,59.1,55.5,52.9,86,81,73,30.14,30.06,10,2,10,0.02
2014-9-13,66.7,59.6,52.3,55.6,51.1,45.5,86,74,55,30.26,30.08,15,3,15,0.00
2014-9-14,75.0,60.5,46.0,55.0,49.1,42.6,88,68,45,30.26,30.14,7,1,8,0.00
2014-9-15,85.8,66.5,51.6,61.9,54.2,45.3,83,66,43,30.17,30.02,11,1,12,0.00
2014-9-16,73.6,64.7,53.4,60.1,56.1,49.0,87,75,52,30.12,30.03,14,3,15,0.00
2014-9-17,77.9,60.8,47.7,59.5,51.3,44.6,91,73,47,30.06,29.91,8,1,8,0.00
2014-9-18,75.9,64.1,55.8,57.0,53.0,49.9,81,69,48,30.05,29.95,7,1,7,0.00
2014-9-19,82.6,66.8,53.6,60.3,54.0,46.9,79,65,45,30.11,30.01,10,1,10,0.00
2014-9-20,89.1,73.7,62.1,69.3,62.0,55.1,83,68,50,30.10,29.93,18,3,18,0.00
2014-9-21,82.9,72.0,60.6,69.2,59.1,49.1,84,66,36,30.04,29.86,22,5,25,0.00
2014-9-22,70.3,59.1,50.4,49.4,46.8,43.0,84,65,43,30.22,30.03,11,2,16,0.00
2014-9-23,75.0,59.5,44.2,51.4,44.9,39.0,84,61,40,30.29,30.20,8,1,8,0.00
2014-9-24,84.6,64.7,48.6,60.2,50.5,42.3,84,62,40,30.30,30.21,7,1,7,0.00
2014-9-25,82.6,67.8,53.8,59.9,52.6,47.4,83,60,40,30.27,30.15,10,1,10,0.00
2014-9-26,85.8,70.6,58.8,63.2,55.6,50.0,81,61,40,30.20,30.11,11,1,11,0.00
2014-9-27,86.5,71.6,57.9,66.3,57.9,50.8,81,63,48,30.17,30.07,10,1,10,0.00
2014-9-28,88.3,71.9,62.4,67.9,60.2,56.2,82,68,48,30.13,30.01,9,1,9,0.06
2014-9-29,85.1,71.5,58.8,66.6,57.2,52.6,87,63,38,30.02,29.91,15,1,15,0.00
2014-9-30,88.3,71.5,54.1,61.6,54.1,46.4,78,57,36,29.94,29.85,9,1,9,0.00
2014-10-1,88.9,71.2,57.4,65.0,56.8,52.8,88,64,36,29.98,29.90,6,0,6,0.00
2014-10-2,93.7,75.0,60.1,67.1,58.9,51.7,79,59,39,30.00,29.80,20,4,20,0.00
2014-10-3,73.8,65.1,47.1,63.4,57.0,40.9,84,75,59,29.92,29.64,22,7,23,0.36
2014-10-4,59.4,47.7,38.5,41.7,35.0,30.0,85,64,39,29.94,29.82,22,5,23,0.00
2014-10-5,71.8,52.3,33.1,47.3,37.4,27.3,82,60,34,29.91,29.73,22,3,22,0.02
2014-10-6,71.4,60.1,53.8,57.1,50.3,44.7,81,71,50,29.85,29.71,22,4,23,0.12
2014-10-7,74.5,63.0,52.9,62.5,55.5,44.6,88,77,65,29.90,29.74,22,5,22,0.55
2014-10-8,75.7,62.6,47.8,55.2,47.5,43.2,86,60,37,30.09,29.90,12,2,14,0.00
2014-10-9,77.4,62.6,52.9,60.6,52.1,43.2,81,69,55,30.12,29.98,8,0,8,0.00
2014-10-10,61.5,58.0,53.8,57.8,54.4,50.9,90,88,81,30.00,29.90,10,1,10,0.26
2014-10-11,56.1,53.0,50.7,51.7,49.6,47.9,91,88,84,30.11,29.94,8,1,8,0.06
2014-10-12,78.8,62.3,51.3,65.4,56.0,47.8,90,81,62,30.07,29.91,7,1,9,0.02
2014-10-13,77.5,69.2,63.1,67.4,62.3,59.2,90,79,65,29.97,29.72,24,5,24,1.18
2014-10-14,70.9,63.0,55.8,60.9,56.7,50.0,89,81,64,29.76,29.54,22,6,25,1.58
2014-10-15,58.1,54.6,52.3,53.0,50.3,48.8,90,85,81,29.78,29.71,13,3,15,0.26
2014-10-16,58.6,53.6,50.2,52.8,49.6,46.3,91,87,78,29.88,29.74,10,2,14,0.06
2014-10-17,74.8,59.5,46.9,60.0,49.2,43.9,90,71,45,29.85,29.73,19,4,20,0.00
2014-10-18,58.3,53.5,49.1,47.9,44.3,41.7,81,71,59,30.12,29.85,14,3,15,0.00
2014-10-19,63.3,51.9,45.0,47.3,42.1,38.8,82,70,52,30.22,30.04,8,1,8,0.00
2014-10-20,69.3,54.8,43.0,53.7,46.1,38.5,86,74,56,30.04,29.87,20,3,20,0.04
2014-10-21,63.1,54.4,47.8,48.6,44.3,40.3,84,70,51,30.12,29.93,18,2,18,0.00
2014-10-22,61.9,50.0,39.4,45.6,40.1,35.2,87,70,51,30.26,30.11,8,1,8,0.00
2014-10-23,65.5,49.8,36.9,46.6,40.2,33.4,89,71,47,30.22,30.07,6,0,7,0.00
2014-10-24,70.2,54.2,42.4,50.4,43.3,37.9,86,68,45,30.11,30.01,6,0,6,0.00
2014-10-25,77.2,59.4,45.1,62.3,50.6,39.8,84,74,57,30.04,29.94,8,1,9,0.00
2014-10-26,78.3,63.4,50.5,52.5,46.3,41.3,82,57,29,30.02,29.92,8,1,8,0.00
2014-10-27,84.9,68.1,54.7,65.4,55.0,44.0,86,64,44,29.95,29.85,22,5,23,0.00
2014-10-28,70.3,62.2,52.3,61.6,54.8,48.3,86,77,65,30.04,29.89,19,4,20,0.32
2014-10-29,66.7,53.9,44.2,54.1,42.8,33.8,89,69,39,30.11,30.03,18,2,18,0.02
2014-10-30,60.6,47.3,36.5,42.9,36.3,31.0,82,67,47,30.14,30.00,7,0,7,0.00
2014-10-31,52.2,42.9,34.3,44.5,36.9,29.6,86,79,68,30.04,29.94,18,5,23,0.16
2014-11-1,42.6,36.4,32.9,30.8,27.8,25.0,87,71,58,30.33,30.04,21,7,23,0.04
2014-11-2,54.7,39.4,26.8,33.2,25.7,21.3,81,60,37,30.45,30.32,6,1,6,0.00
2014-11-3,68.7,51.0,37.2,39.0,30.2,23.8,65,47,28,30.36,30.20,19,3,21,0.00
2014-11-4,67.5,55.3,45.7,49.5,39.9,27.1,81,57,44,30.22,30.08,18,4,21,0.08
2014-11-5,57.4,54.4,52.9,52.3,50.2,48.6,89,86,81,30.20,30.01,7,0,7,0.34
2014-11-6,54.1,48.0,40.8,50.7,41.6,32.3,89,79,64,30.14,29.92,23,6,26,0.04
2014-11-7,54.3,43.2,35.2,37.0,31.8,27.8,75,65,48,30.19,29.98,16,2,17,0.00
2014-11-8,56.5,43.9,31.8,41.0,34.6,26.0,81,71,53,30.03,29.87,18,4,18,0.00
2014-11-9,59.0,45.5,32.9,40.7,32.6,27.0,81,62,43,30.05,29.92,10,2,12,0.00
2014-11-10,67.6,50.2,34.9,44.7,34.4,27.8,78,56,38,29.96,29.77,20,4,24,0.00
2014-11-11,64.0,50.8,34.3,53.5,41.1,30.0,87,70,52,30.08,29.80,22,6,22,0.08
2014-11-12,39.0,34.9,31.3,30.0,27.1,23.0,84,73,66,30.25,30.08,19,4,19,0.00
2014-11-13,32.7,28.6,23.4,23.6,17.4,12.5,74,63,53,30.32,30.22,16,6,18,0.00
2014-11-14,39.0,27.1,20.8,23.2,15.5,12.6,77,62,45,30.36,30.29,9,2,10,0.00
2014-11-15,44.2,32.5,21.4,23.8,18.0,12.4,70,56,40,30.39,30.17,8,1,8,0.00
2014-11-16,43.7,37.9,33.6,33.8,29.5,21.9,87,72,61,30.18,29.85,11,1,12,0.28
2014-11-17,35.4,27.2,19.0,31.9,21.2,11.2,88,78,64,30.14,29.80,16,3,16,0.10
2014-11-18,28.6,19.1,12.7,14.2,8.8,5.1,75,64,49,30.29,30.13,18,4,18,0.00
2014-11-19,50.2,32.6,13.8,30.9,20.8,7.1,75,63,45,30.24,29.92,22,7,26,0.16
2014-11-20,38.3,29.9,21.9,23.8,18.8,14.3,73,63,51,30.27,30.08,17,3,17,0.00
2014-11-21,44.2,31.0,18.3,23.6,17.7,11.7,77,59,40,30.46,30.27,7,1,8,0.00
2014-11-22,64.4,49.8,37.6,40.0,32.4,21.9,63,52,39,30.31,30.03,22,5,25,0.00
2014-11-23,60.1,53.4,46.9,54.4,44.7,33.1,89,73,59,30.03,29.29,22,4,26,0.69
2014-11-24,59.4,51.3,37.2,54.6,42.8,29.0,87,73,59,29.95,29.34,24,10,29,0.02
2014-11-25,47.7,38.0,30.7,31.6,27.9,24.6,83,68,50,30.14,29.95,16,2,16,0.00
2014-11-26,49.8,35.5,25.3,35.7,26.9,21.6,86,72,50,30.13,29.95,11,2,12,0.00
2014-11-27,35.2,30.4,24.6,29.3,25.1,18.7,87,81,74,30.41,29.99,18,4,18,0.02
2014-11-28,43.0,31.5,18.9,29.3,22.5,14.3,85,70,55,30.40,30.03,14,3,16,0.08
2014-11-29,57.6,47.1,34.5,48.6,36.6,23.0,75,67,59,30.05,29.86,22,9,22,0.00
2014-11-30,68.5,60.9,53.8,56.7,52.2,47.9,83,73,63,30.11,29.92,22,9,23,0.00
2014-12-1,61.7,42.5,33.3,53.3,38.0,29.5,88,84,71,30.44,30.10,21,6,21,0.42
2014-12-2,43.0,38.2,33.6,39.4,34.8,30.2,89,88,86,30.37,30.13,11,2,12,0.00
2014-12-3,42.8,36.7,32.7,36.1,32.3,29.0,88,84,73,30.32,30.14,17,3,17,0.02
2014-12-4,41.2,36.5,32.7,38.5,33.3,29.0,90,88,86,30.33,30.19,7,1,10,0.32
2014-12-5,58.6,51.1,41.2,56.0,48.4,38.5,92,91,90,30.20,29.97,16,2,16,0.40
2014-12-6,58.8,46.0,38.8,56.2,41.6,31.9,91,85,76,30.47,29.94,21,8,26,0.29
2014-12-7,47.5,39.5,34.0,33.7,30.3,26.9,77,70,56,30.50,30.28,11,3,12,0.00
2014-12-8,51.6,41.6,32.2,39.4,33.7,27.2,83,74,61,30.29,30.10,16,3,16,0.00
2014-12-9,43.3,38.3,34.9,37.4,32.8,28.0,88,81,71,30.23,30.07,20,5,20,0.00
2014-12-10,40.8,36.8,32.7,34.0,28.6,23.5,88,72,62,30.26,30.17,14,4,14,0.00
2014-12-11,41.5,34.0,28.2,29.1,24.0,21.3,77,67,55,30.26,30.15,10,2,10,0.00
2014-12-12,45.9,33.3,21.6,32.9,25.9,17.2,87,75,56,30.36,30.25,10,1,10,0.00
2014-12-13,49.6,42.3,38.1,39.9,35.1,31.9,80,76,67,30.31,30.17,4,0,6,0.00
2014-12-14,48.0,44.3,41.9,43.2,38.9,35.9,84,81,77,30.18,30.07,6,0,6,0.00
2014-12-15,51.6,45.0,39.6,47.9,38.4,33.9,87,78,67,30.08,29.75,16,2,16,0.00
2014-12-16,53.2,44.3,35.4,49.2,39.8,30.8,87,84,79,30.17,29.72,19,7,20,0.08
2014-12-17,39.0,32.9,26.6,30.8,26.6,21.6,83,77,68,30.27,30.16,18,3,18,0.00
2014-12-18,34.3,30.8,27.7,26.6,24.2,22.6,82,76,70,30.24,30.16,7,1,7,0.00
2014-12-19,41.2,31.9,26.4,28.4,24.0,21.0,83,73,58,30.26,30.18,6,1,6,0.00
2014-12-20,42.6,32.4,27.7,30.5,24.2,21.3,81,72,58,30.25,30.18,6,1,8,0.00
2014-12-21,45.3,33.1,23.0,32.6,26.1,19.4,88,76,58,30.25,30.01,10,1,10,0.00
2014-12-22,54.0,45.6,33.6,46.5,38.5,26.9,87,76,69,30.01,29.66,18,2,18,0.55
2014-12-23,55.9,53.3,49.8,52.4,50.2,46.1,91,89,87,29.78,29.59,16,2,16,0.12
2014-12-24,55.8,47.2,38.1,52.9,43.8,33.7,91,88,83,29.80,29.46,17,4,22,0.14
2014-12-25,48.4,39.3,32.7,37.6,33.0,28.4,85,78,64,30.16,29.80,18,4,18,0.02
2014-12-26,57.4,42.1,30.2,44.1,34.3,26.8,89,75,55,30.25,30.13,21,4,21,0.00
2014-12-27,51.4,47.3,45.5,45.1,40.7,35.7,89,78,68,30.21,30.05,14,4,16,0.26
2014-12-28,46.9,38.0,32.7,43.9,34.8,29.0,89,88,85,30.17,30.00,22,3,22,0.04
2014-12-29,39.6,33.8,30.2,31.0,27.6,23.1,87,78,66,30.29,30.13,11,3,14,0.00
2014-12-30,37.9,30.1,24.6,23.4,19.8,16.6,79,66,46,30.55,30.28,11,4,17,0.00
2014-12-31,33.1,23.9,17.4,16.6,12.1,6.8,79,62,39,30.55,30.35,10,3,10,0.00
2015-1-1,43.0,29.7,18.0,26.5,18.3,8.6,74,63,50,30.35,30.14,22,5,23,0.00
2015-1-2,39.7,36.5,34.7,33.4,29.4,25.0,86,75,66,30.34,30.15,9,1,9,0.02